sensor_id;sensor_type;location;lat;lon;timestamp;P1;P2;P0
62981;PMS5003;49075;53.988;27.678;2023-04-24T00:01:23;27.4;25.8;19.6
62981;PMS5003;49075;53.988;27.678;2023-04-24T00:06:19;28.4;27.4;21.2
62981;PMS5003;49075;53.988;27.678;2023-04-24T00:11:29;29.6;28.8;21
62981;PMS5003;49075;53.988;27.678;2023-04-24T00:16:13;33.5;31.8;22.8
62981;PMS5003;49075;53.988;27.678;2023-04-24T00:21:23;27.8;26.2;20.2
62981;PMS5003;49075;53.988;27.678;2023-04-24T00:26:23;27;26.6;19.4
62981;PMS5003;49075;53.988;27.678;2023-04-24T00:31:23;27;26;19.6
62981;PMS5003;49075;53.988;27.678;2023-04-24T00:36:21;28;28;21.4
62981;PMS5003;49075;53.988;27.678;2023-04-24T00:41:29;28.8;27.4;20.8
62981;PMS5003;49075;53.988;27.678;2023-04-24T00:46:13;25.8;25.8;19.6
62981;PMS5003;49075;53.988;27.678;2023-04-24T00:51:23;32.8;30.8;21.6
62981;PMS5003;49075;53.988;27.678;2023-04-24T00:56:35;25.8;25.4;19.2
62981;PMS5003;49075;53.988;27.678;2023-04-24T01:01:13;30;29.6;21.2
62981;PMS5003;49075;53.988;27.678;2023-04-24T01:06:23;29.4;28.2;20.6
62981;PMS5003;49075;53.988;27.678;2023-04-24T01:11:35;26.4;25.6;19.8
62981;PMS5003;49075;53.988;27.678;2023-04-24T01:16:13;28;27.5;19.8
62981;PMS5003;49075;53.988;27.678;2023-04-24T01:21:13;25.6;25.6;19.6
62981;PMS5003;49075;53.988;27.678;2023-04-24T01:26:13;27.2;26.2;20
62981;PMS5003;49075;53.988;27.678;2023-04-24T01:31:39;31.2;30.4;22
62981;PMS5003;49075;53.988;27.678;2023-04-24T01:36:43;29.2;28.2;20.6
62981;PMS5003;49075;53.988;27.678;2023-04-24T01:41:35;30.6;30;21.6
62981;PMS5003;49075;53.988;27.678;2023-04-24T01:46:29;29.8;27.8;20.4
62981;PMS5003;49075;53.988;27.678;2023-04-24T01:51:25;27.8;26.2;19.2
62981;PMS5003;49075;53.988;27.678;2023-04-24T01:56:13;29.6;28.8;20
62981;PMS5003;49075;53.988;27.678;2023-04-24T02:01:23;29.2;29.2;21.2
62981;PMS5003;49075;53.988;27.678;2023-04-24T02:06:23;31.8;30.8;22
62981;PMS5003;49075;53.988;27.678;2023-04-24T02:11:23;26.4;25.8;20
62981;PMS5003;49075;53.988;27.678;2023-04-24T02:16:29;29;28.5;21.3
62981;PMS5003;49075;53.988;27.678;2023-04-24T02:21:33;29.6;28.8;21.4
62981;PMS5003;49075;53.988;27.678;2023-04-24T02:26:33;26.2;25.8;19.4
62981;PMS5003;49075;53.988;27.678;2023-04-24T02:31:13;28.8;27.8;21.4
62981;PMS5003;49075;53.988;27.678;2023-04-24T02:36:31;30.2;29;21.2
62981;PMS5003;49075;53.988;27.678;2023-04-24T02:41:23;29.2;28.2;20.8
62981;PMS5003;49075;53.988;27.678;2023-04-24T02:46:23;27.4;27;19.8
62981;PMS5003;49075;53.988;27.678;2023-04-24T02:51:13;27.6;26;19
62981;PMS5003;49075;53.988;27.678;2023-04-24T02:56:13;24.6;24.4;17.8
62981;PMS5003;49075;53.988;27.678;2023-04-24T03:01:23;26.6;26.4;19.4
62981;PMS5003;49075;53.988;27.678;2023-04-24T03:06:13;30.4;28.6;19.6
62981;PMS5003;49075;53.988;27.678;2023-04-24T03:11:21;26.4;25.8;20.2
62981;PMS5003;49075;53.988;27.678;2023-04-24T03:16:29;28;27;20.4
62981;PMS5003;49075;53.988;27.678;2023-04-24T03:21:35;30.3;29.3;22.5
62981;PMS5003;49075;53.988;27.678;2023-04-24T03:26:29;28.2;27.2;20.6
62981;PMS5003;49075;53.988;27.678;2023-04-24T03:31:13;31.4;30.8;23.2
62981;PMS5003;49075;53.988;27.678;2023-04-24T03:36:13;27.6;27.4;21.4
62981;PMS5003;49075;53.988;27.678;2023-04-24T03:41:29;32;31.2;21.4
62981;PMS5003;49075;53.988;27.678;2023-04-24T03:46:29;28.2;26.4;20
62981;PMS5003;49075;53.988;27.678;2023-04-24T03:51:13;27.2;26.6;19.8
62981;PMS5003;49075;53.988;27.678;2023-04-24T03:56:23;25.6;25.4;19
62981;PMS5003;49075;53.988;27.678;2023-04-24T04:01:23;27.4;26;19.8
62981;PMS5003;49075;53.988;27.678;2023-04-24T04:06:23;27;26.6;19.4
62981;PMS5003;49075;53.988;27.678;2023-04-24T04:11:23;26.8;26.4;20.2
62981;PMS5003;49075;53.988;27.678;2023-04-24T04:16:23;28.2;27.8;21.2
62981;PMS5003;49075;53.988;27.678;2023-04-24T04:21:45;30;28.8;20.5
62981;PMS5003;49075;53.988;27.678;2023-04-24T04:26:23;29.2;27.4;19.8
62981;PMS5003;49075;53.988;27.678;2023-04-24T04:31:33;27.6;26.8;19.4
62981;PMS5003;49075;53.988;27.678;2023-04-24T04:36:19;27;26.6;19.4
62981;PMS5003;49075;53.988;27.678;2023-04-24T04:41:13;27.6;26.8;20.2
62981;PMS5003;49075;53.988;27.678;2023-04-24T04:46:45;26.4;25.8;18.8
62981;PMS5003;49075;53.988;27.678;2023-04-24T04:51:19;25.2;25;18.8
62981;PMS5003;49075;53.988;27.678;2023-04-24T04:56:13;25.6;25.2;18.8
62981;PMS5003;49075;53.988;27.678;2023-04-24T05:01:37;27.2;26.6;19.8
62981;PMS5003;49075;53.988;27.678;2023-04-24T05:06:13;24.4;23.8;17.6
62981;PMS5003;49075;53.988;27.678;2023-04-24T05:11:13;25.8;25.4;19
62981;PMS5003;49075;53.988;27.678;2023-04-24T05:16:31;29.6;28;21.2
62981;PMS5003;49075;53.988;27.678;2023-04-24T05:21:23;23.3;23.3;17.5
62981;PMS5003;49075;53.988;27.678;2023-04-24T05:26:13;27.4;26.8;20.4
62981;PMS5003;49075;53.988;27.678;2023-04-24T05:31:25;27.8;27.4;21.4
62981;PMS5003;49075;53.988;27.678;2023-04-24T05:36:29;22.4;22;16.6
62981;PMS5003;49075;53.988;27.678;2023-04-24T05:41:39;30.5;28.8;20.5
62981;PMS5003;49075;53.988;27.678;2023-04-24T05:46:23;27.8;25.8;18.4
62981;PMS5003;49075;53.988;27.678;2023-04-24T05:51:13;27.8;27.8;20
62981;PMS5003;49075;53.988;27.678;2023-04-24T05:56:23;25;24.8;18
62981;PMS5003;49075;53.988;27.678;2023-04-24T06:01:29;22.6;22.2;17.2
62981;PMS5003;49075;53.988;27.678;2023-04-24T06:06:21;28.6;27.6;20.2
62981;PMS5003;49075;53.988;27.678;2023-04-24T06:11:33;26.8;26;19.2
62981;PMS5003;49075;53.988;27.678;2023-04-24T06:16:19;25;24.8;18.4
62981;PMS5003;49075;53.988;27.678;2023-04-24T06:21:27;27.8;26.6;19.2
62981;PMS5003;49075;53.988;27.678;2023-04-24T06:26:23;27.8;27;20
62981;PMS5003;49075;53.988;27.678;2023-04-24T06:31:13;29.6;28.4;21.4
62981;PMS5003;49075;53.988;27.678;2023-04-24T06:36:39;25.2;25;18.6
62981;PMS5003;49075;53.988;27.678;2023-04-24T06:41:23;24.8;24.6;18.6
62981;PMS5003;49075;53.988;27.678;2023-04-24T06:46:19;25.4;25;18.6
62981;PMS5003;49075;53.988;27.678;2023-04-24T06:51:23;24.6;23.8;18
62981;PMS5003;49075;53.988;27.678;2023-04-24T06:56:29;26.5;26;18.8
62981;PMS5003;49075;53.988;27.678;2023-04-24T07:01:21;25;24.3;18.5
62981;PMS5003;49075;53.988;27.678;2023-04-24T07:06:13;25.6;25;18.6
62981;PMS5003;49075;53.988;27.678;2023-04-24T07:11:21;22.5;22.3;17
62981;PMS5003;49075;53.988;27.678;2023-04-24T07:16:21;25.6;25.2;18.4
62981;PMS5003;49075;53.988;27.678;2023-04-24T07:21:23;27.2;25.6;19.2
62981;PMS5003;49075;53.988;27.678;2023-04-24T07:26:23;26.8;26.8;20.8
62981;PMS5003;49075;53.988;27.678;2023-04-24T07:31:31;27.8;26.6;19.6
62981;PMS5003;49075;53.988;27.678;2023-04-24T07:36:23;22.4;22;16.4
62981;PMS5003;49075;53.988;27.678;2023-04-24T07:41:13;27.4;27;20
62981;PMS5003;49075;53.988;27.678;2023-04-24T07:46:13;25.6;25.4;19.2
62981;PMS5003;49075;53.988;27.678;2023-04-24T07:51:13;23;22.8;17.6
62981;PMS5003;49075;53.988;27.678;2023-04-24T07:56:41;25;24.2;18.8
62981;PMS5003;49075;53.988;27.678;2023-04-24T08:01:23;23.8;23.8;19.4
62981;PMS5003;49075;53.988;27.678;2023-04-24T08:06:33;27.4;26.6;18.8
62981;PMS5003;49075;53.988;27.678;2023-04-24T08:11:23;26.4;25.4;19.4
62981;PMS5003;49075;53.988;27.678;2023-04-24T08:16:13;24.6;24.2;18.2
62981;PMS5003;49075;53.988;27.678;2023-04-24T08:21:33;25.4;25;20
62981;PMS5003;49075;53.988;27.678;2023-04-24T08:26:19;22;21.3;17.5
62981;PMS5003;49075;53.988;27.678;2023-04-24T08:31:13;19.2;19.2;15.6
62981;PMS5003;49075;53.988;27.678;2023-04-24T08:36:33;22.6;22;17.6
62981;PMS5003;49075;53.988;27.678;2023-04-24T08:41:25;21.6;21.6;18.2
62981;PMS5003;49075;53.988;27.678;2023-04-24T08:46:13;21.6;21.4;16.4
62981;PMS5003;49075;53.988;27.678;2023-04-24T08:51:36;21;21;16.6
62981;PMS5003;49075;53.988;27.678;2023-04-24T08:56:23;26;25.6;19.8
62981;PMS5003;49075;53.988;27.678;2023-04-24T09:01:25;25.2;24.6;18.6
62981;PMS5003;49075;53.988;27.678;2023-04-24T09:06:29;22;21.6;17.8
62981;PMS5003;49075;53.988;27.678;2023-04-24T09:11:13;22.2;21.8;17
62981;PMS5003;49075;53.988;27.678;2023-04-24T09:16:13;24.8;23.4;18.4
62981;PMS5003;49075;53.988;27.678;2023-04-24T09:21:23;22.6;22.6;17.8
62981;PMS5003;49075;53.988;27.678;2023-04-24T09:26:19;23.4;22;16.6
62981;PMS5003;49075;53.988;27.678;2023-04-24T09:31:35;20.3;20;15.3
62981;PMS5003;49075;53.988;27.678;2023-04-24T09:36:13;19.6;19.4;15.4
62981;PMS5003;49075;53.988;27.678;2023-04-24T09:41:13;23.4;22.6;17.2
62981;PMS5003;49075;53.988;27.678;2023-04-24T09:46:13;23.6;23.2;18
62981;PMS5003;49075;53.988;27.678;2023-04-24T09:51:35;21.2;20.8;14.8
62981;PMS5003;49075;53.988;27.678;2023-04-24T09:56:13;19.4;19.4;15.2
62981;PMS5003;49075;53.988;27.678;2023-04-24T10:01:29;22.6;22.2;16.4
62981;PMS5003;49075;53.988;27.678;2023-04-24T10:06:13;22.6;22.4;17
62981;PMS5003;49075;53.988;27.678;2023-04-24T10:11:25;26.8;26.8;19.6
62981;PMS5003;49075;53.988;27.678;2023-04-24T10:16:55;25.2;24.4;18.6
62981;PMS5003;49075;53.988;27.678;2023-04-24T10:21:23;23.8;23.6;18.6
62981;PMS5003;49075;53.988;27.678;2023-04-24T10:26:35;24;23.6;18
62981;PMS5003;49075;53.988;27.678;2023-04-24T10:31:13;20;20;16.8
62981;PMS5003;49075;53.988;27.678;2023-04-24T10:36:44;22.8;22;17.2
62981;PMS5003;49075;53.988;27.678;2023-04-24T10:41:13;25.2;24;18.4
62981;PMS5003;49075;53.988;27.678;2023-04-24T10:46:16;21.8;21.8;16.6
62981;PMS5003;49075;53.988;27.678;2023-04-24T10:51:14;18.8;18.6;15
62981;PMS5003;49075;53.988;27.678;2023-04-24T10:56:32;20.8;20.6;15.6
62981;PMS5003;49075;53.988;27.678;2023-04-24T11:01:27;20.3;19.8;16.3
62981;PMS5003;49075;53.988;27.678;2023-04-24T11:06:43;26.2;25.6;19.8
62981;PMS5003;49075;53.988;27.678;2023-04-24T11:11:19;20.8;20.2;16
62981;PMS5003;49075;53.988;27.678;2023-04-24T11:16:30;23.4;23.4;18
62981;PMS5003;49075;53.988;27.678;2023-04-24T11:21:13;21.8;21.4;15.8
62981;PMS5003;49075;53.988;27.678;2023-04-24T11:26:23;20.8;20.6;16.2
62981;PMS5003;49075;53.988;27.678;2023-04-24T11:31:34;21.8;21.8;16.2
62981;PMS5003;49075;53.988;27.678;2023-04-24T11:36:25;23.2;22;16.8
62981;PMS5003;49075;53.988;27.678;2023-04-24T11:41:23;22;21;16
62981;PMS5003;49075;53.988;27.678;2023-04-24T11:46:27;22;20.8;16.4
62981;PMS5003;49075;53.988;27.678;2023-04-24T11:51:43;20;19.8;15.6
62981;PMS5003;49075;53.988;27.678;2023-04-24T11:56:23;22.4;21.6;16.8
62981;PMS5003;49075;53.988;27.678;2023-04-24T12:01:13;23.6;23.4;17.4
62981;PMS5003;49075;53.988;27.678;2023-04-24T12:06:13;26.6;25.6;18.8
62981;PMS5003;49075;53.988;27.678;2023-04-24T12:11:23;21.2;20.8;16.8
62981;PMS5003;49075;53.988;27.678;2023-04-24T12:16:23;25;23.8;18.8
62981;PMS5003;49075;53.988;27.678;2023-04-24T12:21:23;24.4;23.4;18.4
62981;PMS5003;49075;53.988;27.678;2023-04-24T12:26:23;23.4;23.4;17.6
62981;PMS5003;49075;53.988;27.678;2023-04-24T12:31:31;23.6;23;18
62981;PMS5003;49075;53.988;27.678;2023-04-24T12:36:13;24.2;23.6;18.6
62981;PMS5003;49075;53.988;27.678;2023-04-24T12:41:13;20.8;20.8;16.5
62981;PMS5003;49075;53.988;27.678;2023-04-24T12:46:13;23.4;23;17.8
62981;PMS5003;49075;53.988;27.678;2023-04-24T12:51:37;21.8;21.8;16.2
62981;PMS5003;49075;53.988;27.678;2023-04-24T12:56:13;22.4;21.8;17
62981;PMS5003;49075;53.988;27.678;2023-04-24T13:01:23;24.2;23.6;17.6
62981;PMS5003;49075;53.988;27.678;2023-04-24T13:06:23;23.5;23.3;17.5
62981;PMS5003;49075;53.988;27.678;2023-04-24T13:11:45;22.8;22.2;17.2
62981;PMS5003;49075;53.988;27.678;2023-04-24T13:16:37;20.2;19.2;15.6
62981;PMS5003;49075;53.988;27.678;2023-04-24T13:21:29;24;24;18
62981;PMS5003;49075;53.988;27.678;2023-04-24T13:26:13;23.2;22.6;17.8
62981;PMS5003;49075;53.988;27.678;2023-04-24T13:31:25;23.2;21.8;16
62981;PMS5003;49075;53.988;27.678;2023-04-24T13:36:25;21.2;20.4;16.2
62981;PMS5003;49075;53.988;27.678;2023-04-24T13:41:13;23.2;22.4;17.2
62981;PMS5003;49075;53.988;27.678;2023-04-24T13:46:25;21.6;21.2;17.4
62981;PMS5003;49075;53.988;27.678;2023-04-24T13:51:21;20;20;16
62981;PMS5003;49075;53.988;27.678;2023-04-24T13:56:25;25.5;25;19
62981;PMS5003;49075;53.988;27.678;2023-04-24T14:01:13;23.6;22.2;17.4
62981;PMS5003;49075;53.988;27.678;2023-04-24T14:06:19;23.6;23.4;17.6
62981;PMS5003;49075;53.988;27.678;2023-04-24T14:11:25;26.2;25.4;19.4
62981;PMS5003;49075;53.988;27.678;2023-04-24T14:16:13;24.8;24;19
62981;PMS5003;49075;53.988;27.678;2023-04-24T14:21:13;26.4;24.8;18.4
62981;PMS5003;49075;53.988;27.678;2023-04-24T14:26:25;22.4;22.4;17
62981;PMS5003;49075;53.988;27.678;2023-04-24T14:31:35;26.8;25;18
62981;PMS5003;49075;53.988;27.678;2023-04-24T14:36:21;25.6;25;18.8
62981;PMS5003;49075;53.988;27.678;2023-04-24T14:41:31;24.4;23.8;18.2
62981;PMS5003;49075;53.988;27.678;2023-04-24T14:46:35;23.2;23;17
62981;PMS5003;49075;53.988;27.678;2023-04-24T14:51:27;23.4;22.4;17.4
62981;PMS5003;49075;53.988;27.678;2023-04-24T14:56:13;22.3;21.8;16.8
62981;PMS5003;49075;53.988;27.678;2023-04-24T15:01:23;26.2;24.8;19.2
62981;PMS5003;49075;53.988;27.678;2023-04-24T15:06:13;23.3;22.3;17
62981;PMS5003;49075;53.988;27.678;2023-04-24T15:11:13;21.8;21.8;17.4
62981;PMS5003;49075;53.988;27.678;2023-04-24T15:16:13;23.2;22.8;17.2
62981;PMS5003;49075;53.988;27.678;2023-04-24T15:21:23;23.2;22.2;17.4
62981;PMS5003;49075;53.988;27.678;2023-04-24T15:26:13;23.8;23.4;19
62981;PMS5003;49075;53.988;27.678;2023-04-24T15:31:23;26.8;26.4;19.2
62981;PMS5003;49075;53.988;27.678;2023-04-24T15:36:31;26;24.6;17.8
62981;PMS5003;49075;53.988;27.678;2023-04-24T15:41:13;26.8;25;18
62981;PMS5003;49075;53.988;27.678;2023-04-24T15:46:21;25.2;24.6;18.2
62981;PMS5003;49075;53.988;27.678;2023-04-24T15:51:13;23;22;17.4
62981;PMS5003;49075;53.988;27.678;2023-04-24T15:56:49;26.8;25.5;19
62981;PMS5003;49075;53.988;27.678;2023-04-24T16:01:21;23.2;22.6;17
62981;PMS5003;49075;53.988;27.678;2023-04-24T16:06:35;21;20.4;16.2
62981;PMS5003;49075;53.988;27.678;2023-04-24T16:11:13;23.8;23.2;17
62981;PMS5003;49075;53.988;27.678;2023-04-24T16:16:29;21.5;20.8;17.3
62981;PMS5003;49075;53.988;27.678;2023-04-24T16:21:23;20.8;20.4;16.4
62981;PMS5003;49075;53.988;27.678;2023-04-24T16:26:23;24;23.6;17.4
62981;PMS5003;49075;53.988;27.678;2023-04-24T16:31:13;22;22;18.3
62981;PMS5003;49075;53.988;27.678;2023-04-24T16:36:25;27.2;26.6;19.4
62981;PMS5003;49075;53.988;27.678;2023-04-24T16:41:23;25.8;25.2;18.2
62981;PMS5003;49075;53.988;27.678;2023-04-24T16:46:25;23.6;23.2;17.4
62981;PMS5003;49075;53.988;27.678;2023-04-24T16:51:19;25.8;24.6;18.6
62981;PMS5003;49075;53.988;27.678;2023-04-24T16:56:33;25.2;24.6;19
62981;PMS5003;49075;53.988;27.678;2023-04-24T17:01:13;26.2;25.2;18.8
62981;PMS5003;49075;53.988;27.678;2023-04-24T17:06:45;26.5;26.3;19.8
62981;PMS5003;49075;53.988;27.678;2023-04-24T17:11:29;28.4;26.6;19.8
62981;PMS5003;49075;53.988;27.678;2023-04-24T17:16:13;28.8;27.8;19.8
62981;PMS5003;49075;53.988;27.678;2023-04-24T17:21:25;26.2;25.8;19.6
62981;PMS5003;49075;53.988;27.678;2023-04-24T17:26:19;31;29.6;21.4
62981;PMS5003;49075;53.988;27.678;2023-04-24T17:31:57;31;29.6;21
62981;PMS5003;49075;53.988;27.678;2023-04-24T17:36:13;33.2;31.4;22.8
62981;PMS5003;49075;53.988;27.678;2023-04-24T17:41:23;30;28.8;21
62981;PMS5003;49075;53.988;27.678;2023-04-24T17:46:23;34.8;32;22.4
62981;PMS5003;49075;53.988;27.678;2023-04-24T17:51:13;30.2;29.4;21
62981;PMS5003;49075;53.988;27.678;2023-04-24T17:56:21;34;31.6;22.4
62981;PMS5003;49075;53.988;27.678;2023-04-24T18:01:13;36.2;33;24.2
62981;PMS5003;49075;53.988;27.678;2023-04-24T18:06:13;31.4;30.6;21.8
62981;PMS5003;49075;53.988;27.678;2023-04-24T18:11:13;32;31;22.5
62981;PMS5003;49075;53.988;27.678;2023-04-24T18:16:13;31.3;29;20.8
62981;PMS5003;49075;53.988;27.678;2023-04-24T18:21:13;30;29.4;21.2
62981;PMS5003;49075;53.988;27.678;2023-04-24T18:26:35;34.4;31.8;22.6
62981;PMS5003;49075;53.988;27.678;2023-04-24T18:31:25;31;30;21.7
62981;PMS5003;49075;53.988;27.678;2023-04-24T18:36:13;30.4;29.6;21.6
62981;PMS5003;49075;53.988;27.678;2023-04-24T18:41:31;36;33.4;23.2
62981;PMS5003;49075;53.988;27.678;2023-04-24T18:46:35;28.6;27.4;20
62981;PMS5003;49075;53.988;27.678;2023-04-24T18:51:13;33.6;31;22.8
62981;PMS5003;49075;53.988;27.678;2023-04-24T18:56:23;34.6;31.8;22.4
62981;PMS5003;49075;53.988;27.678;2023-04-24T19:01:13;31;30;21.4
62981;PMS5003;49075;53.988;27.678;2023-04-24T19:06:31;31.2;30;22.2
62981;PMS5003;49075;53.988;27.678;2023-04-24T19:11:35;31.6;29;21
62981;PMS5003;49075;53.988;27.678;2023-04-24T19:16:29;27.8;27.2;19.6
62981;PMS5003;49075;53.988;27.678;2023-04-24T19:21:13;28;27.4;20.4
62981;PMS5003;49075;53.988;27.678;2023-04-24T19:26:35;32.6;30.2;21.2
62981;PMS5003;49075;53.988;27.678;2023-04-24T19:31:13;29.3;28.3;19.8
62981;PMS5003;49075;53.988;27.678;2023-04-24T19:36:45;34.8;31.4;22.4
62981;PMS5003;49075;53.988;27.678;2023-04-24T19:41:35;29.6;28.2;20.6
62981;PMS5003;49075;53.988;27.678;2023-04-24T19:46:35;31.4;29.4;21
62981;PMS5003;49075;53.988;27.678;2023-04-24T19:51:13;28;27.8;20.6
62981;PMS5003;49075;53.988;27.678;2023-04-24T19:56:13;28.2;27.2;21
62981;PMS5003;49075;53.988;27.678;2023-04-24T20:01:23;33.2;30.8;21.4
62981;PMS5003;49075;53.988;27.678;2023-04-24T20:06:23;31.4;30.2;21.6
62981;PMS5003;49075;53.988;27.678;2023-04-24T20:11:25;28.2;27.4;20
62981;PMS5003;49075;53.988;27.678;2023-04-24T20:16:33;32.4;31;21.8
62981;PMS5003;49075;53.988;27.678;2023-04-24T20:21:25;34.2;31.2;21.6
62981;PMS5003;49075;53.988;27.678;2023-04-24T20:26:13;30.2;29.2;20.8
62981;PMS5003;49075;53.988;27.678;2023-04-24T20:31:13;31.8;30.8;21
62981;PMS5003;49075;53.988;27.678;2023-04-24T20:36:13;28.4;26.8;20
62981;PMS5003;49075;53.988;27.678;2023-04-24T20:46:23;32.5;29;20.3
62981;PMS5003;49075;53.988;27.678;2023-04-24T20:51:13;33.4;31.4;21.6
62981;PMS5003;49075;53.988;27.678;2023-04-24T20:56:37;32.6;30.8;21.2
62981;PMS5003;49075;53.988;27.678;2023-04-24T21:01:13;28.6;28;20.8
62981;PMS5003;49075;53.988;27.678;2023-04-24T21:06:25;27.3;26.8;20.5
62981;PMS5003;49075;53.988;27.678;2023-04-24T21:11:13;28.4;26.8;19.4
62981;PMS5003;49075;53.988;27.678;2023-04-24T21:16:13;31;29.4;20.6
62981;PMS5003;49075;53.988;27.678;2023-04-24T21:21:25;28;26.4;19.4
62981;PMS5003;49075;53.988;27.678;2023-04-24T21:26:13;26.4;26.2;18.4
62981;PMS5003;49075;53.988;27.678;2023-04-24T21:31:35;23.6;22.6;17.4
62981;PMS5003;49075;53.988;27.678;2023-04-24T21:36:27;30.8;29.8;21.6
62981;PMS5003;49075;53.988;27.678;2023-04-24T21:41:23;33.2;30.4;21.2
62981;PMS5003;49075;53.988;27.678;2023-04-24T21:46:31;27.4;26.2;18.8
62981;PMS5003;49075;53.988;27.678;2023-04-24T21:51:37;25;24;18.2
62981;PMS5003;49075;53.988;27.678;2023-04-24T21:56:27;30.2;29.4;21.6
62981;PMS5003;49075;53.988;27.678;2023-04-24T22:01:13;28.5;27.5;20.3
62981;PMS5003;49075;53.988;27.678;2023-04-24T22:06:13;32;30.8;21.6
62981;PMS5003;49075;53.988;27.678;2023-04-24T22:11:39;27.6;26.8;20
62981;PMS5003;49075;53.988;27.678;2023-04-24T22:16:37;31.2;30.4;21.6
62981;PMS5003;49075;53.988;27.678;2023-04-24T22:21:23;30.8;29.4;21.6
62981;PMS5003;49075;53.988;27.678;2023-04-24T22:26:13;26;25.4;19.6
62981;PMS5003;49075;53.988;27.678;2023-04-24T22:31:27;28;27.2;20
62981;PMS5003;49075;53.988;27.678;2023-04-24T22:36:13;32.4;31;22
62981;PMS5003;49075;53.988;27.678;2023-04-24T22:41:13;30.2;29;21.2
62981;PMS5003;49075;53.988;27.678;2023-04-24T22:46:27;33.6;32;22.4
62981;PMS5003;49075;53.988;27.678;2023-04-24T22:51:23;29.6;28.8;20.8
62981;PMS5003;49075;53.988;27.678;2023-04-24T22:56:27;32.4;31.4;21.8
62981;PMS5003;49075;53.988;27.678;2023-04-24T23:01:27;35.5;33.5;22.8
62981;PMS5003;49075;53.988;27.678;2023-04-24T23:06:13;29;28.2;20
62981;PMS5003;49075;53.988;27.678;2023-04-24T23:11:13;30.4;29.4;20.6
62981;PMS5003;49075;53.988;27.678;2023-04-24T23:16:37;30.6;29.4;21.6
62981;PMS5003;49075;53.988;27.678;2023-04-24T23:21:23;32.8;31.5;22
62981;PMS5003;49075;53.988;27.678;2023-04-24T23:26:27;31.4;30.4;22
62981;PMS5003;49075;53.988;27.678;2023-04-24T23:31:13;34.4;32.4;22.8
62981;PMS5003;49075;53.988;27.678;2023-04-24T23:36:19;31.6;29.8;21
62981;PMS5003;49075;53.988;27.678;2023-04-24T23:41:13;34;32;22.8
62981;PMS5003;49075;53.988;27.678;2023-04-24T23:46:13;37.8;35;23.2
62981;PMS5003;49075;53.988;27.678;2023-04-24T23:51:13;32;30.6;22.6
62981;PMS5003;49075;53.988;27.678;2023-04-24T23:56:33;36.2;34.4;22.4
